sensor_id;sensor_type;location;lat;lon;timestamp;P1;durP1;ratioP1;P2;durP2;ratioP2
12072;SDS011;6098;49.004;8.372;2024-01-07T00:11:17;24.66;;;10.69;;
12072;SDS011;6098;49.004;8.372;2024-01-07T00:26:08;16.49;;;7.21;;
12072;SDS011;6098;49.004;8.372;2024-01-07T00:40:57;15.24;;;7.97;;
12072;SDS011;6098;49.004;8.372;2024-01-07T00:55:48;19.49;;;8.27;;
12072;SDS011;6098;49.004;8.372;2024-01-07T01:10:40;20.80;;;8.73;;
12072;SDS011;6098;49.004;8.372;2024-01-07T01:25:31;16.89;;;8.48;;
12072;SDS011;6098;49.004;8.372;2024-01-07T01:40:23;18.33;;;8.72;;
12072;SDS011;6098;49.004;8.372;2024-01-07T01:55:14;21.42;;;7.98;;
12072;SDS011;6098;49.004;8.372;2024-01-07T02:10:08;16.06;;;8.78;;
12072;SDS011;6098;49.004;8.372;2024-01-07T02:24:59;19.18;;;8.52;;
12072;SDS011;6098;49.004;8.372;2024-01-07T02:39:50;23.62;;;9.22;;
12072;SDS011;6098;49.004;8.372;2024-01-07T02:54:42;20.24;;;9.37;;
12072;SDS011;6098;49.004;8.372;2024-01-07T03:09:33;15.84;;;8.12;;
12072;SDS011;6098;49.004;8.372;2024-01-07T03:24:25;15.73;;;7.77;;
12072;SDS011;6098;49.004;8.372;2024-01-07T03:39:17;15.87;;;7.33;;
12072;SDS011;6098;49.004;8.372;2024-01-07T03:54:08;17.86;;;7.11;;
12072;SDS011;6098;49.004;8.372;2024-01-07T04:08:59;14.82;;;7.84;;
12072;SDS011;6098;49.004;8.372;2024-01-07T04:23:52;17.43;;;8.12;;
12072;SDS011;6098;49.004;8.372;2024-01-07T04:38:43;14.99;;;6.84;;
12072;SDS011;6098;49.004;8.372;2024-01-07T04:53:35;14.14;;;6.80;;
12072;SDS011;6098;49.004;8.372;2024-01-07T05:08:26;15.58;;;7.30;;
12072;SDS011;6098;49.004;8.372;2024-01-07T05:23:17;13.90;;;7.33;;
12072;SDS011;6098;49.004;8.372;2024-01-07T05:38:07;18.63;;;7.68;;
12072;SDS011;6098;49.004;8.372;2024-01-07T05:52:58;22.10;;;8.60;;
12072;SDS011;6098;49.004;8.372;2024-01-07T06:07:50;15.37;;;8.40;;
12072;SDS011;6098;49.004;8.372;2024-01-07T06:22:41;16.79;;;8.40;;
12072;SDS011;6098;49.004;8.372;2024-01-07T06:37:33;16.00;;;7.68;;
12072;SDS011;6098;49.004;8.372;2024-01-07T06:52:23;16.00;;;7.02;;
12072;SDS011;6098;49.004;8.372;2024-01-07T07:07:15;14.81;;;7.08;;
12072;SDS011;6098;49.004;8.372;2024-01-07T07:22:06;12.17;;;6.29;;
12072;SDS011;6098;49.004;8.372;2024-01-07T07:36:57;14.29;;;7.78;;
12072;SDS011;6098;49.004;8.372;2024-01-07T07:51:49;18.08;;;8.01;;
12072;SDS011;6098;49.004;8.372;2024-01-07T08:06:40;16.24;;;7.26;;
12072;SDS011;6098;49.004;8.372;2024-01-07T08:21:32;16.54;;;7.22;;
12072;SDS011;6098;49.004;8.372;2024-01-07T08:36:24;20.74;;;9.07;;
12072;SDS011;6098;49.004;8.372;2024-01-07T08:51:14;15.48;;;7.68;;
12072;SDS011;6098;49.004;8.372;2024-01-07T09:06:06;14.13;;;7.28;;
12072;SDS011;6098;49.004;8.372;2024-01-07T09:20:57;15.19;;;7.44;;
12072;SDS011;6098;49.004;8.372;2024-01-07T09:35:51;15.59;;;8.27;;
12072;SDS011;6098;49.004;8.372;2024-01-07T09:50:45;18.89;;;8.93;;
12072;SDS011;6098;49.004;8.372;2024-01-07T10:05:36;17.02;;;8.14;;
12072;SDS011;6098;49.004;8.372;2024-01-07T10:20:28;14.56;;;7.38;;
12072;SDS011;6098;49.004;8.372;2024-01-07T10:35:19;14.63;;;6.19;;
12072;SDS011;6098;49.004;8.372;2024-01-07T10:50:11;12.31;;;6.28;;
12072;SDS011;6098;49.004;8.372;2024-01-07T11:20:26;8.78;;;5.47;;
12072;SDS011;6098;49.004;8.372;2024-01-07T11:35:18;6.86;;;3.68;;
12072;SDS011;6098;49.004;8.372;2024-01-07T11:50:09;5.88;;;3.19;;
12072;SDS011;6098;49.004;8.372;2024-01-07T12:05:01;4.97;;;3.60;;
12072;SDS011;6098;49.004;8.372;2024-01-07T12:19:52;5.80;;;3.57;;
12072;SDS011;6098;49.004;8.372;2024-01-07T12:34:43;4.99;;;3.26;;
12072;SDS011;6098;49.004;8.372;2024-01-07T12:49:34;7.02;;;3.76;;
12072;SDS011;6098;49.004;8.372;2024-01-07T13:04:25;9.77;;;5.49;;
12072;SDS011;6098;49.004;8.372;2024-01-07T13:19:14;9.87;;;5.14;;
12072;SDS011;6098;49.004;8.372;2024-01-07T13:34:04;7.73;;;4.57;;
12072;SDS011;6098;49.004;8.372;2024-01-07T13:48:56;9.02;;;4.88;;
12072;SDS011;6098;49.004;8.372;2024-01-07T14:03:47;9.18;;;5.27;;
12072;SDS011;6098;49.004;8.372;2024-01-07T14:18:39;7.78;;;4.32;;
12072;SDS011;6098;49.004;8.372;2024-01-07T14:33:29;7.94;;;5.42;;
12072;SDS011;6098;49.004;8.372;2024-01-07T14:48:19;8.51;;;4.94;;
12072;SDS011;6098;49.004;8.372;2024-01-07T15:03:10;11.09;;;5.30;;
12072;SDS011;6098;49.004;8.372;2024-01-07T15:18:00;10.41;;;5.46;;
12072;SDS011;6098;49.004;8.372;2024-01-07T15:32:57;11.80;;;5.00;;
12072;SDS011;6098;49.004;8.372;2024-01-07T15:47:48;10.52;;;5.93;;
12072;SDS011;6098;49.004;8.372;2024-01-07T16:02:38;11.01;;;5.09;;
12072;SDS011;6098;49.004;8.372;2024-01-07T16:17:29;9.06;;;4.82;;
12072;SDS011;6098;49.004;8.372;2024-01-07T16:32:19;10.68;;;4.48;;
12072;SDS011;6098;49.004;8.372;2024-01-07T16:47:10;9.14;;;4.73;;
12072;SDS011;6098;49.004;8.372;2024-01-07T17:02:00;7.00;;;4.16;;
12072;SDS011;6098;49.004;8.372;2024-01-07T17:16:50;9.83;;;4.78;;
12072;SDS011;6098;49.004;8.372;2024-01-07T17:31:42;9.86;;;5.32;;
12072;SDS011;6098;49.004;8.372;2024-01-07T17:46:31;10.91;;;5.64;;
12072;SDS011;6098;49.004;8.372;2024-01-07T18:01:21;9.63;;;4.78;;
12072;SDS011;6098;49.004;8.372;2024-01-07T18:16:13;9.86;;;4.73;;
12072;SDS011;6098;49.004;8.372;2024-01-07T18:31:04;8.21;;;4.61;;
12072;SDS011;6098;49.004;8.372;2024-01-07T18:45:54;5.37;;;3.49;;
12072;SDS011;6098;49.004;8.372;2024-01-07T19:00:44;9.39;;;3.26;;
12072;SDS011;6098;49.004;8.372;2024-01-07T19:15:34;7.96;;;3.78;;
12072;SDS011;6098;49.004;8.372;2024-01-07T19:30:24;4.76;;;2.62;;
12072;SDS011;6098;49.004;8.372;2024-01-07T19:45:29;3.92;;;1.74;;
12072;SDS011;6098;49.004;8.372;2024-01-07T20:00:19;3.81;;;2.41;;
12072;SDS011;6098;49.004;8.372;2024-01-07T20:15:09;4.10;;;2.77;;
12072;SDS011;6098;49.004;8.372;2024-01-07T20:30:14;3.49;;;2.28;;
12072;SDS011;6098;49.004;8.372;2024-01-07T20:45:05;4.29;;;2.38;;
12072;SDS011;6098;49.004;8.372;2024-01-07T20:59:57;3.29;;;2.09;;
12072;SDS011;6098;49.004;8.372;2024-01-07T21:14:47;3.23;;;1.92;;
12072;SDS011;6098;49.004;8.372;2024-01-07T21:29:39;2.20;;;1.68;;
12072;SDS011;6098;49.004;8.372;2024-01-07T21:44:43;2.98;;;2.30;;
12072;SDS011;6098;49.004;8.372;2024-01-07T21:59:32;2.29;;;1.71;;
12072;SDS011;6098;49.004;8.372;2024-01-07T22:14:27;1.76;;;1.22;;
12072;SDS011;6098;49.004;8.372;2024-01-07T22:29:30;1.70;;;1.60;;
12072;SDS011;6098;49.004;8.372;2024-01-07T22:44:20;1.53;;;1.30;;
12072;SDS011;6098;49.004;8.372;2024-01-07T22:59:10;1.42;;;1.29;;
12072;SDS011;6098;49.004;8.372;2024-01-07T23:14:05;2.98;;;1.50;;
12072;SDS011;6098;49.004;8.372;2024-01-07T23:28:54;1.12;;;1.01;;
12072;SDS011;6098;49.004;8.372;2024-01-07T23:43:44;1.69;;;1.41;;
12072;SDS011;6098;49.004;8.372;2024-01-07T23:58:33;2.18;;;1.60;;
